sensor_id;sensor_type;location;lat;lon;timestamp;pressure;altitude;pressure_sealevel;temperature;humidity
39411;BME280;26579;43.238;23.124;2023-01-26T00:00:02;97694.22;;;1.41;74.71
39411;BME280;26579;43.238;23.124;2023-01-26T00:02:30;97709.66;;;1.65;74.14
39411;BME280;26579;43.238;23.124;2023-01-26T00:04:56;97715.88;;;1.84;73.71
39411;BME280;26579;43.238;23.124;2023-01-26T00:07:22;97707.59;;;1.76;73.49
39411;BME280;26579;43.238;23.124;2023-01-26T00:09:47;97714.06;;;1.86;72.69
39411;BME280;26579;43.238;23.124;2023-01-26T00:12:13;97692.56;;;1.89;72.91
39411;BME280;26579;43.238;23.124;2023-01-26T00:14:39;97700.38;;;1.86;72.95
39411;BME280;26579;43.238;23.124;2023-01-26T00:17:04;97704.00;;;2.05;73.07
39411;BME280;26579;43.238;23.124;2023-01-26T00:19:30;97719.78;;;1.94;72.94
39411;BME280;26579;43.238;23.124;2023-01-26T00:21:56;97695.53;;;1.78;72.60
39411;BME280;26579;43.238;23.124;2023-01-26T00:24:21;97716.47;;;1.91;72.94
39411;BME280;26579;43.238;23.124;2023-01-26T00:26:47;97712.41;;;1.85;73.23
39411;BME280;26579;43.238;23.124;2023-01-26T00:29:13;97701.72;;;1.72;72.89
39411;BME280;26579;43.238;23.124;2023-01-26T00:31:38;97701.75;;;1.71;73.10
39411;BME280;26579;43.238;23.124;2023-01-26T00:34:04;97687.09;;;1.49;73.75
39411;BME280;26579;43.238;23.124;2023-01-26T00:36:29;97690.06;;;1.37;74.10
39411;BME280;26579;43.238;23.124;2023-01-26T00:38:55;97670.09;;;1.20;75.19
39411;BME280;26579;43.238;23.124;2023-01-26T00:41:21;97697.59;;;1.42;75.01
39411;BME280;26579;43.238;23.124;2023-01-26T00:43:48;97691.66;;;1.41;74.96
39411;BME280;26579;43.238;23.124;2023-01-26T00:46:14;97707.88;;;1.42;75.39
39411;BME280;26579;43.238;23.124;2023-01-26T00:48:39;97700.88;;;1.20;75.75
39411;BME280;26579;43.238;23.124;2023-01-26T00:51:05;97686.94;;;1.02;76.80
39411;BME280;26579;43.238;23.124;2023-01-26T00:53:31;97665.19;;;0.87;76.74
39411;BME280;26579;43.238;23.124;2023-01-26T00:55:56;97679.06;;;1.07;77.28
39411;BME280;26579;43.238;23.124;2023-01-26T00:58:22;97679.03;;;1.08;77.26
39411;BME280;26579;43.238;23.124;2023-01-26T01:00:48;97681.69;;;1.05;77.19
39411;BME280;26579;43.238;23.124;2023-01-26T01:03:14;97684.06;;;0.85;77.87
39411;BME280;26579;43.238;23.124;2023-01-26T01:05:39;97685.41;;;0.97;78.99
39411;BME280;26579;43.238;23.124;2023-01-26T01:08:05;97681.31;;;1.18;77.88
39411;BME280;26579;43.238;23.124;2023-01-26T01:10:33;97676.78;;;1.24;77.49
39411;BME280;26579;43.238;23.124;2023-01-26T01:12:59;97677.47;;;1.31;76.27
39411;BME280;26579;43.238;23.124;2023-01-26T01:15:24;97669.69;;;1.32;76.74
39411;BME280;26579;43.238;23.124;2023-01-26T01:17:50;97668.13;;;1.28;75.83
39411;BME280;26579;43.238;23.124;2023-01-26T01:20:16;97668.03;;;1.31;76.23
39411;BME280;26579;43.238;23.124;2023-01-26T01:22:42;97662.63;;;1.14;76.37
39411;BME280;26579;43.238;23.124;2023-01-26T01:25:08;97666.84;;;1.15;77.29
39411;BME280;26579;43.238;23.124;2023-01-26T01:27:34;97652.66;;;1.05;77.01
39411;BME280;26579;43.238;23.124;2023-01-26T01:30:00;97651.16;;;0.98;77.19
39411;BME280;26579;43.238;23.124;2023-01-26T01:32:25;97665.09;;;1.16;77.26
39411;BME280;26579;43.238;23.124;2023-01-26T01:34:51;97662.34;;;1.22;77.35
39411;BME280;26579;43.238;23.124;2023-01-26T01:37:17;97661.47;;;1.48;76.70
39411;BME280;26579;43.238;23.124;2023-01-26T01:39:43;97651.91;;;1.53;75.96
39411;BME280;26579;43.238;23.124;2023-01-26T01:42:09;97644.91;;;1.56;75.65
39411;BME280;26579;43.238;23.124;2023-01-26T01:44:37;97651.75;;;1.57;75.03
39411;BME280;26579;43.238;23.124;2023-01-26T01:47:16;97636.47;;;1.54;74.41
39411;BME280;26579;43.238;23.124;2023-01-26T01:49:47;97641.50;;;1.57;74.95
39411;BME280;26579;43.238;23.124;2023-01-26T01:52:22;97625.41;;;1.52;75.67
39411;BME280;26579;43.238;23.124;2023-01-26T01:55:09;97635.97;;;1.68;74.75
39411;BME280;26579;43.238;23.124;2023-01-26T01:57:40;97610.47;;;1.64;74.07
39411;BME280;26579;43.238;23.124;2023-01-26T02:00:08;97627.84;;;1.80;73.52
39411;BME280;26579;43.238;23.124;2023-01-26T02:02:44;97633.63;;;1.86;73.05
39411;BME280;26579;43.238;23.124;2023-01-26T02:05:34;97626.44;;;1.72;73.70
39411;BME280;26579;43.238;23.124;2023-01-26T02:08:03;97623.09;;;1.70;73.71
39411;BME280;26579;43.238;23.124;2023-01-26T02:10:29;97622.09;;;1.49;74.36
39411;BME280;26579;43.238;23.124;2023-01-26T02:12:57;97622.78;;;1.29;74.63
39411;BME280;26579;43.238;23.124;2023-01-26T02:15:24;97621.94;;;1.28;75.96
39411;BME280;26579;43.238;23.124;2023-01-26T02:17:51;97613.59;;;1.22;76.19
39411;BME280;26579;43.238;23.124;2023-01-26T02:20:31;97591.44;;;1.19;75.84
39411;BME280;26579;43.238;23.124;2023-01-26T02:28:12;97600.91;;;1.44;75.96
39411;BME280;26579;43.238;23.124;2023-01-26T02:30:38;97593.91;;;1.47;75.73
39411;BME280;26579;43.238;23.124;2023-01-26T02:33:04;97585.25;;;1.51;75.60
39411;BME280;26579;43.238;23.124;2023-01-26T02:35:29;97575.97;;;1.47;74.94
39411;BME280;26579;43.238;23.124;2023-01-26T02:37:55;97550.88;;;1.30;75.73
39411;BME280;26579;43.238;23.124;2023-01-26T02:40:31;97583.75;;;1.44;75.62
39411;BME280;26579;43.238;23.124;2023-01-26T02:43:00;97561.09;;;1.32;75.76
39411;BME280;26579;43.238;23.124;2023-01-26T02:45:26;97575.38;;;1.39;75.80
39411;BME280;26579;43.238;23.124;2023-01-26T02:47:52;97580.19;;;1.48;75.99
39411;BME280;26579;43.238;23.124;2023-01-26T02:50:18;97575.59;;;1.58;74.96
39411;BME280;26579;43.238;23.124;2023-01-26T02:52:44;97554.84;;;1.39;75.40
39411;BME280;26579;43.238;23.124;2023-01-26T02:55:16;97575.50;;;1.59;75.51
39411;BME280;26579;43.238;23.124;2023-01-26T02:57:43;97559.63;;;1.50;75.32
39411;BME280;26579;43.238;23.124;2023-01-26T03:00:30;97562.69;;;1.59;75.97
39411;BME280;26579;43.238;23.124;2023-01-26T03:02:58;97544.22;;;1.50;76.40
39411;BME280;26579;43.238;23.124;2023-01-26T03:05:26;97535.56;;;1.52;75.55
39411;BME280;26579;43.238;23.124;2023-01-26T03:07:53;97554.66;;;1.69;75.24
39411;BME280;26579;43.238;23.124;2023-01-26T03:10:21;97556.50;;;1.65;75.53
39411;BME280;26579;43.238;23.124;2023-01-26T03:12:47;97539.09;;;1.73;74.98
39411;BME280;26579;43.238;23.124;2023-01-26T03:15:13;97549.13;;;1.79;75.08
39411;BME280;26579;43.238;23.124;2023-01-26T03:17:39;97520.44;;;1.68;74.93
39411;BME280;26579;43.238;23.124;2023-01-26T03:20:05;97516.88;;;1.72;75.10
39411;BME280;26579;43.238;23.124;2023-01-26T03:22:31;97529.53;;;1.77;75.14
39411;BME280;26579;43.238;23.124;2023-01-26T03:24:57;97522.88;;;1.71;74.85
39411;BME280;26579;43.238;23.124;2023-01-26T03:27:23;97527.34;;;1.90;74.75
39411;BME280;26579;43.238;23.124;2023-01-26T03:29:49;97522.22;;;1.90;74.11
39411;BME280;26579;43.238;23.124;2023-01-26T03:32:15;97513.28;;;1.76;74.10
39411;BME280;26579;43.238;23.124;2023-01-26T03:34:41;97520.59;;;1.87;74.45
39411;BME280;26579;43.238;23.124;2023-01-26T03:37:07;97481.81;;;1.71;74.09
39411;BME280;26579;43.238;23.124;2023-01-26T03:39:53;97520.38;;;1.93;73.32
39411;BME280;26579;43.238;23.124;2023-01-26T03:42:19;97522.22;;;1.90;73.36
39411;BME280;26579;43.238;23.124;2023-01-26T03:44:45;97517.72;;;1.95;73.97
39411;BME280;26579;43.238;23.124;2023-01-26T03:47:11;97508.91;;;2.02;73.73
39411;BME280;26579;43.238;23.124;2023-01-26T03:49:38;97503.94;;;1.97;73.66
39411;BME280;26579;43.238;23.124;2023-01-26T03:52:05;97495.03;;;1.84;74.40
39411;BME280;26579;43.238;23.124;2023-01-26T03:54:31;97500.84;;;1.89;74.04
39411;BME280;26579;43.238;23.124;2023-01-26T03:56:57;97483.09;;;1.83;74.53
39411;BME280;26579;43.238;23.124;2023-01-26T03:59:23;97504.41;;;1.85;73.14
39411;BME280;26579;43.238;23.124;2023-01-26T04:01:49;97496.22;;;1.75;73.49
39411;BME280;26579;43.238;23.124;2023-01-26T04:04:14;97493.38;;;1.59;74.19
39411;BME280;26579;43.238;23.124;2023-01-26T04:06:44;97495.72;;;1.66;74.02
39411;BME280;26579;43.238;23.124;2023-01-26T04:09:10;97495.69;;;1.67;73.69
39411;BME280;26579;43.238;23.124;2023-01-26T04:11:36;97501.06;;;1.83;74.25
39411;BME280;26579;43.238;23.124;2023-01-26T04:14:02;97491.81;;;1.79;73.48
39411;BME280;26579;43.238;23.124;2023-01-26T04:16:30;97496.00;;;1.81;73.47
39411;BME280;26579;43.238;23.124;2023-01-26T04:18:56;97489.41;;;1.74;74.09
39411;BME280;26579;43.238;23.124;2023-01-26T04:21:22;97468.97;;;1.71;74.09
39411;BME280;26579;43.238;23.124;2023-01-26T04:23:47;97460.66;;;1.66;74.71
39411;BME280;26579;43.238;23.124;2023-01-26T04:26:14;97472.78;;;1.85;74.19
39411;BME280;26579;43.238;23.124;2023-01-26T04:28:40;97462.72;;;1.78;74.38
39411;BME280;26579;43.238;23.124;2023-01-26T04:31:06;97468.09;;;1.72;74.72
39411;BME280;26579;43.238;23.124;2023-01-26T04:33:34;97474.00;;;1.74;74.14
39411;BME280;26579;43.238;23.124;2023-01-26T04:36:04;97473.06;;;1.77;74.43
39411;BME280;26579;43.238;23.124;2023-01-26T04:38:31;97473.59;;;1.85;73.44
39411;BME280;26579;43.238;23.124;2023-01-26T04:40:57;97477.94;;;1.83;73.79
39411;BME280;26579;43.238;23.124;2023-01-26T04:43:24;97468.09;;;1.94;73.92
39411;BME280;26579;43.238;23.124;2023-01-26T04:46:00;97436.97;;;1.80;74.02
39411;BME280;26579;43.238;23.124;2023-01-26T04:48:28;97468.59;;;2.04;73.08
39411;BME280;26579;43.238;23.124;2023-01-26T04:50:55;97447.88;;;1.87;73.98
39411;BME280;26579;43.238;23.124;2023-01-26T04:53:21;97464.47;;;2.00;73.01
39411;BME280;26579;43.238;23.124;2023-01-26T04:55:47;97470.75;;;1.93;73.07
39411;BME280;26579;43.238;23.124;2023-01-26T04:58:13;97469.13;;;1.90;73.36
39411;BME280;26579;43.238;23.124;2023-01-26T05:00:39;97437.66;;;1.85;72.82
39411;BME280;26579;43.238;23.124;2023-01-26T05:03:04;97460.16;;;2.00;72.73
39411;BME280;26579;43.238;23.124;2023-01-26T05:05:35;97458.38;;;2.02;72.10
39411;BME280;26579;43.238;23.124;2023-01-26T05:08:00;97454.44;;;1.94;72.90
39411;BME280;26579;43.238;23.124;2023-01-26T05:10:30;97464.13;;;1.87;72.93
39411;BME280;26579;43.238;23.124;2023-01-26T05:13:15;97469.00;;;1.93;73.32
39411;BME280;26579;43.238;23.124;2023-01-26T05:15:54;97463.34;;;2.07;73.42
39411;BME280;26579;43.238;23.124;2023-01-26T05:18:40;97457.53;;;2.02;72.09
39411;BME280;26579;43.238;23.124;2023-01-26T05:21:26;97432.09;;;1.96;72.93
39411;BME280;26579;43.238;23.124;2023-01-26T05:23:52;97455.88;;;2.01;73.74
39411;BME280;26579;43.238;23.124;2023-01-26T05:26:37;97431.44;;;1.91;73.19
39411;BME280;26579;43.238;23.124;2023-01-26T05:29:07;97458.44;;;2.01;71.69
39411;BME280;26579;43.238;23.124;2023-01-26T05:31:33;97447.97;;;2.06;72.18
39411;BME280;26579;43.238;23.124;2023-01-26T05:33:59;97444.03;;;1.97;72.82
39411;BME280;26579;43.238;23.124;2023-01-26T05:36:24;97422.19;;;1.87;73.00
39411;BME280;26579;43.238;23.124;2023-01-26T05:38:50;97442.13;;;2.02;72.97
39411;BME280;26579;43.238;23.124;2023-01-26T05:41:20;97421.53;;;1.81;73.24
39411;BME280;26579;43.238;23.124;2023-01-26T05:43:58;97433.59;;;1.79;72.55
39411;BME280;26579;43.238;23.124;2023-01-26T05:46:40;97434.97;;;1.66;73.31
39411;BME280;26579;43.238;23.124;2023-01-26T05:49:06;97454.44;;;1.72;73.83
39411;BME280;26579;43.238;23.124;2023-01-26T05:51:32;97451.69;;;1.76;74.35
39411;BME280;26579;43.238;23.124;2023-01-26T05:53:58;97450.25;;;1.91;74.49
39411;BME280;26579;43.238;23.124;2023-01-26T05:56:24;97452.06;;;1.89;74.50
39411;BME280;26579;43.238;23.124;2023-01-26T05:58:54;97439.22;;;1.89;73.75
39411;BME280;26579;43.238;23.124;2023-01-26T06:01:20;97438.19;;;1.93;73.16
39411;BME280;26579;43.238;23.124;2023-01-26T06:03:53;97440.81;;;1.92;73.52
39411;BME280;26579;43.238;23.124;2023-01-26T06:06:19;97437.38;;;1.93;72.93
39411;BME280;26579;43.238;23.124;2023-01-26T06:08:49;97440.06;;;1.90;72.93
39411;BME280;26579;43.238;23.124;2023-01-26T06:11:35;97424.03;;;1.83;73.19
39411;BME280;26579;43.238;23.124;2023-01-26T06:14:21;97436.69;;;1.88;73.45
39411;BME280;26579;43.238;23.124;2023-01-26T06:16:47;97425.84;;;1.81;72.92
39411;BME280;26579;43.238;23.124;2023-01-26T06:19:13;97429.66;;;1.93;72.98
39411;BME280;26579;43.238;23.124;2023-01-26T06:21:40;97438.97;;;1.95;73.33
39411;BME280;26579;43.238;23.124;2023-01-26T06:24:14;97415.94;;;1.72;73.22
39411;BME280;26579;43.238;23.124;2023-01-26T06:26:46;97430.31;;;1.76;73.26
39411;BME280;26579;43.238;23.124;2023-01-26T06:29:15;97429.53;;;1.74;74.21
39411;BME280;26579;43.238;23.124;2023-01-26T06:31:51;97430.47;;;1.71;74.69
39411;BME280;26579;43.238;23.124;2023-01-26T06:34:19;97405.66;;;1.72;74.14
39411;BME280;26579;43.238;23.124;2023-01-26T06:37:06;97424.94;;;1.82;74.17
39411;BME280;26579;43.238;23.124;2023-01-26T06:39:37;97420.50;;;1.86;74.37
39411;BME280;26579;43.238;23.124;2023-01-26T06:42:03;97406.13;;;1.81;74.08
39411;BME280;26579;43.238;23.124;2023-01-26T06:44:29;97414.91;;;1.98;73.31
39411;BME280;26579;43.238;23.124;2023-01-26T06:46:55;97409.03;;;1.94;73.38
39411;BME280;26579;43.238;23.124;2023-01-26T06:49:25;97416.50;;;2.00;72.85
39411;BME280;26579;43.238;23.124;2023-01-26T06:52:25;97417.16;;;2.06;72.63
39411;BME280;26579;43.238;23.124;2023-01-26T06:54:56;97414.31;;;1.91;73.15
39411;BME280;26579;43.238;23.124;2023-01-26T06:57:41;97416.56;;;1.99;73.07
39411;BME280;26579;43.238;23.124;2023-01-26T07:00:32;97413.06;;;2.01;72.39
39411;BME280;26579;43.238;23.124;2023-01-26T07:03:12;97378.34;;;1.91;72.35
39411;BME280;26579;43.238;23.124;2023-01-26T07:05:44;97390.06;;;1.98;71.86
39411;BME280;26579;43.238;23.124;2023-01-26T07:08:12;97410.28;;;2.06;71.31
39411;BME280;26579;43.238;23.124;2023-01-26T07:10:38;97407.97;;;2.00;71.46
39411;BME280;26579;43.238;23.124;2023-01-26T07:13:04;97414.25;;;1.93;71.93
39411;BME280;26579;43.238;23.124;2023-01-26T07:15:33;97389.72;;;1.64;72.94
39411;BME280;26579;43.238;23.124;2023-01-26T07:17:59;97402.97;;;1.75;72.72
39411;BME280;26579;43.238;23.124;2023-01-26T07:20:26;97403.50;;;1.83;72.09
39411;BME280;26579;43.238;23.124;2023-01-26T07:22:52;97401.66;;;1.87;72.37
39411;BME280;26579;43.238;23.124;2023-01-26T07:25:18;97404.22;;;1.87;72.41
39411;BME280;26579;43.238;23.124;2023-01-26T07:27:44;97393.72;;;1.93;72.00
39411;BME280;26579;43.238;23.124;2023-01-26T07:30:10;97394.47;;;1.95;71.50
39411;BME280;26579;43.238;23.124;2023-01-26T07:32:37;97377.41;;;1.94;71.82
39411;BME280;26579;43.238;23.124;2023-01-26T07:35:02;97377.28;;;1.97;71.35
39411;BME280;26579;43.238;23.124;2023-01-26T07:37:29;97403.88;;;2.16;71.49
39411;BME280;26579;43.238;23.124;2023-01-26T07:39:55;97392.84;;;2.14;71.68
39411;BME280;26579;43.238;23.124;2023-01-26T07:42:21;97397.09;;;2.15;71.75
39411;BME280;26579;43.238;23.124;2023-01-26T07:44:57;97390.59;;;2.07;72.28
39411;BME280;26579;43.238;23.124;2023-01-26T07:47:23;97379.59;;;2.03;71.83
39411;BME280;26579;43.238;23.124;2023-01-26T07:49:48;97375.66;;;1.94;71.82
39411;BME280;26579;43.238;23.124;2023-01-26T07:52:14;97358.50;;;1.95;72.10
39411;BME280;26579;43.238;23.124;2023-01-26T07:54:40;97390.25;;;2.14;71.93
39411;BME280;26579;43.238;23.124;2023-01-26T07:57:05;97386.59;;;2.20;71.58
39411;BME280;26579;43.238;23.124;2023-01-26T07:59:31;97387.69;;;2.14;72.04
39411;BME280;26579;43.238;23.124;2023-01-26T08:01:57;97379.03;;;2.17;72.03
39411;BME280;26579;43.238;23.124;2023-01-26T08:04:22;97385.66;;;2.22;71.88
39411;BME280;26579;43.238;23.124;2023-01-26T08:06:50;97381.41;;;2.21;72.02
39411;BME280;26579;43.238;23.124;2023-01-26T08:09:16;97372.94;;;2.19;72.40
39411;BME280;26579;43.238;23.124;2023-01-26T08:11:41;97377.56;;;2.32;71.76
39411;BME280;26579;43.238;23.124;2023-01-26T08:14:07;97344.81;;;2.16;71.43
39411;BME280;26579;43.238;23.124;2023-01-26T08:16:33;97364.19;;;2.23;72.56
39411;BME280;26579;43.238;23.124;2023-01-26T08:18:59;97361.44;;;2.28;71.73
39411;BME280;26579;43.238;23.124;2023-01-26T08:21:24;97356.47;;;2.23;70.91
39411;BME280;26579;43.238;23.124;2023-01-26T08:23:51;97364.44;;;2.17;71.59
39411;BME280;26579;43.238;23.124;2023-01-26T08:26:18;97361.81;;;2.19;71.92
39411;BME280;26579;43.238;23.124;2023-01-26T08:28:44;97366.50;;;2.09;71.95
39411;BME280;26579;43.238;23.124;2023-01-26T08:31:16;97350.59;;;2.01;70.82
39411;BME280;26579;43.238;23.124;2023-01-26T08:33:42;97360.72;;;2.04;71.41
39411;BME280;26579;43.238;23.124;2023-01-26T08:36:11;97346.72;;;2.11;71.17
39411;BME280;26579;43.238;23.124;2023-01-26T08:38:37;97339.22;;;2.07;71.39
39411;BME280;26579;43.238;23.124;2023-01-26T08:41:03;97336.66;;;2.27;70.86
39411;BME280;26579;43.238;23.124;2023-01-26T08:43:29;97347.63;;;2.31;71.25
39411;BME280;26579;43.238;23.124;2023-01-26T08:45:55;97339.97;;;2.29;70.87
39411;BME280;26579;43.238;23.124;2023-01-26T08:48:21;97349.84;;;2.38;70.71
39411;BME280;26579;43.238;23.124;2023-01-26T08:50:47;97324.78;;;2.24;71.04
39411;BME280;26579;43.238;23.124;2023-01-26T08:53:12;97346.31;;;2.41;70.93
39411;BME280;26579;43.238;23.124;2023-01-26T08:55:38;97327.59;;;2.39;71.16
39411;BME280;26579;43.238;23.124;2023-01-26T08:58:04;97320.72;;;2.39;70.53
39411;BME280;26579;43.238;23.124;2023-01-26T09:00:30;97337.19;;;2.54;70.56
39411;BME280;26579;43.238;23.124;2023-01-26T09:03:02;97330.88;;;2.61;70.53
39411;BME280;26579;43.238;23.124;2023-01-26T09:05:33;97318.75;;;2.65;70.52
39411;BME280;26579;43.238;23.124;2023-01-26T09:07:59;97327.84;;;2.72;70.09
39411;BME280;26579;43.238;23.124;2023-01-26T09:10:25;97325.41;;;2.69;69.36
39411;BME280;26579;43.238;23.124;2023-01-26T09:12:51;97342.03;;;2.62;69.78
39411;BME280;26579;43.238;23.124;2023-01-26T09:15:17;97326.16;;;2.52;70.27
39411;BME280;26579;43.238;23.124;2023-01-26T09:17:42;97318.50;;;2.51;69.61
39411;BME280;26579;43.238;23.124;2023-01-26T09:20:09;97310.66;;;2.54;70.70
39411;BME280;26579;43.238;23.124;2023-01-26T09:22:36;97325.88;;;2.58;70.22
39411;BME280;26579;43.238;23.124;2023-01-26T09:25:02;97319.91;;;2.58;70.17
39411;BME280;26579;43.238;23.124;2023-01-26T09:27:28;97322.16;;;2.65;70.04
39411;BME280;26579;43.238;23.124;2023-01-26T09:29:54;97318.03;;;2.61;70.51
39411;BME280;26579;43.238;23.124;2023-01-26T09:32:19;97318.28;;;2.55;70.81
39411;BME280;26579;43.238;23.124;2023-01-26T09:34:45;97296.25;;;2.49;71.16
39411;BME280;26579;43.238;23.124;2023-01-26T09:37:11;97289.75;;;2.61;70.81
39411;BME280;26579;43.238;23.124;2023-01-26T09:39:36;97276.53;;;2.50;70.58
39411;BME280;26579;43.238;23.124;2023-01-26T09:42:16;97287.69;;;2.69;69.85
39411;BME280;26579;43.238;23.124;2023-01-26T09:47:30;97282.44;;;2.52;70.09
39411;BME280;26579;43.238;23.124;2023-01-26T09:50:12;97273.91;;;2.52;71.16
39411;BME280;26579;43.238;23.124;2023-01-26T09:53:02;97264.88;;;2.43;70.91
39411;BME280;26579;43.238;23.124;2023-01-26T09:55:33;97248.41;;;2.47;70.68
39411;BME280;26579;43.238;23.124;2023-01-26T09:58:11;97259.69;;;2.44;70.52
39411;BME280;26579;43.238;23.124;2023-01-26T10:00:45;97251.47;;;2.36;72.73
39411;BME280;26579;43.238;23.124;2023-01-26T10:09:01;97248.38;;;2.28;71.85
39411;BME280;26579;43.238;23.124;2023-01-26T10:11:37;97264.91;;;2.41;71.23
39411;BME280;26579;43.238;23.124;2023-01-26T10:14:12;97236.78;;;2.19;71.00
39411;BME280;26579;43.238;23.124;2023-01-26T10:16:42;97241.28;;;2.14;71.61
39411;BME280;26579;43.238;23.124;2023-01-26T10:19:38;97259.50;;;2.29;72.38
39411;BME280;26579;43.238;23.124;2023-01-26T10:22:12;97230.81;;;2.38;72.27
39411;BME280;26579;43.238;23.124;2023-01-26T10:24:40;97236.97;;;2.54;71.88
39411;BME280;26579;43.238;23.124;2023-01-26T10:27:11;97216.44;;;2.53;71.29
39411;BME280;26579;43.238;23.124;2023-01-26T10:29:36;97231.06;;;2.71;70.74
39411;BME280;26579;43.238;23.124;2023-01-26T10:32:02;97213.75;;;2.56;71.77
39411;BME280;26579;43.238;23.124;2023-01-26T10:34:28;97200.19;;;2.52;71.84
39411;BME280;26579;43.238;23.124;2023-01-26T10:37:04;97222.22;;;2.58;71.18
39411;BME280;26579;43.238;23.124;2023-01-26T10:39:56;97206.88;;;2.56;71.44
39411;BME280;26579;43.238;23.124;2023-01-26T10:42:22;97198.47;;;2.71;70.06
39411;BME280;26579;43.238;23.124;2023-01-26T10:44:50;97225.81;;;2.91;70.20
39411;BME280;26579;43.238;23.124;2023-01-26T10:47:18;97208.41;;;2.97;70.01
39411;BME280;26579;43.238;23.124;2023-01-26T10:49:44;97209.34;;;2.95;69.72
39411;BME280;26579;43.238;23.124;2023-01-26T10:52:20;97206.38;;;2.86;69.97
39411;BME280;26579;43.238;23.124;2023-01-26T10:57:30;97194.44;;;3.02;69.78
39411;BME280;26579;43.238;23.124;2023-01-26T10:59:58;97174.09;;;2.98;69.82
39411;BME280;26579;43.238;23.124;2023-01-26T11:02:27;97180.53;;;3.06;69.89
39411;BME280;26579;43.238;23.124;2023-01-26T11:12:50;97145.81;;;3.15;69.57
39411;BME280;26579;43.238;23.124;2023-01-26T11:15:23;97142.09;;;3.03;69.74
39411;BME280;26579;43.238;23.124;2023-01-26T11:17:59;97136.16;;;3.20;69.48
39411;BME280;26579;43.238;23.124;2023-01-26T11:23:56;97145.28;;;3.26;68.94
39411;BME280;26579;43.238;23.124;2023-01-26T11:26:46;97111.97;;;3.05;68.89
39411;BME280;26579;43.238;23.124;2023-01-26T11:29:33;97122.34;;;3.21;68.74
39411;BME280;26579;43.238;23.124;2023-01-26T11:35:18;97126.19;;;2.59;70.74
39411;BME280;26579;43.238;23.124;2023-01-26T11:43:49;97122.44;;;2.66;71.71
39411;BME280;26579;43.238;23.124;2023-01-26T11:52:29;97095.47;;;2.75;70.88
39411;BME280;26579;43.238;23.124;2023-01-26T11:55:21;97096.00;;;2.81;69.90
39411;BME280;26579;43.238;23.124;2023-01-26T12:00:57;97096.25;;;2.94;69.04
39411;BME280;26579;43.238;23.124;2023-01-26T12:03:40;97073.38;;;2.88;68.49
39411;BME280;26579;43.238;23.124;2023-01-26T12:06:14;97083.91;;;2.66;69.13
39411;BME280;26579;43.238;23.124;2023-01-26T12:08:44;97081.94;;;2.71;69.55
39411;BME280;26579;43.238;23.124;2023-01-26T12:22:28;97071.22;;;2.80;69.54
39411;BME280;26579;43.238;23.124;2023-01-26T12:27:43;97048.81;;;2.65;70.32
39411;BME280;26579;43.238;23.124;2023-01-26T12:32:58;97045.09;;;2.88;69.74
39411;BME280;26579;43.238;23.124;2023-01-26T12:38:07;97039.53;;;2.80;70.83
39411;BME280;26579;43.238;23.124;2023-01-26T12:41:00;97038.28;;;2.69;70.35
39411;BME280;26579;43.238;23.124;2023-01-26T12:46:45;97022.88;;;2.87;70.59
39411;BME280;26579;43.238;23.124;2023-01-26T12:49:25;97023.03;;;3.01;69.97
39411;BME280;26579;43.238;23.124;2023-01-26T12:52:03;97020.28;;;3.04;69.52
39411;BME280;26579;43.238;23.124;2023-01-26T12:54:38;96999.41;;;2.93;69.41
39411;BME280;26579;43.238;23.124;2023-01-26T12:57:12;97000.50;;;2.89;69.76
39411;BME280;26579;43.238;23.124;2023-01-26T12:59:39;97026.50;;;3.00;70.39
39411;BME280;26579;43.238;23.124;2023-01-26T13:04:42;97026.34;;;3.03;69.26
39411;BME280;26579;43.238;23.124;2023-01-26T13:07:33;97030.38;;;2.91;69.02
39411;BME280;26579;43.238;23.124;2023-01-26T13:12:54;97010.16;;;2.66;70.32
39411;BME280;26579;43.238;23.124;2023-01-26T13:15:27;97015.47;;;2.81;69.36
39411;BME280;26579;43.238;23.124;2023-01-26T13:17:58;97005.78;;;2.86;69.66
39411;BME280;26579;43.238;23.124;2023-01-26T13:20:45;97009.03;;;2.72;69.98
39411;BME280;26579;43.238;23.124;2023-01-26T13:23:40;96999.81;;;2.51;70.21
39411;BME280;26579;43.238;23.124;2023-01-26T13:31:54;96986.66;;;2.57;70.98
39411;BME280;26579;43.238;23.124;2023-01-26T13:34:41;96996.25;;;2.70;70.99
39411;BME280;26579;43.238;23.124;2023-01-26T13:37:20;96991.09;;;2.70;70.97
39411;BME280;26579;43.238;23.124;2023-01-26T13:39:55;96974.94;;;2.68;70.08
39411;BME280;26579;43.238;23.124;2023-01-26T13:42:24;97003.38;;;2.83;70.03
39411;BME280;26579;43.238;23.124;2023-01-26T13:45:53;97001.78;;;2.80;70.05
39411;BME280;26579;43.238;23.124;2023-01-26T13:47:53;96987.56;;;2.73;70.43
39411;BME280;26579;43.238;23.124;2023-01-26T13:50:22;96979.16;;;2.69;70.01
39411;BME280;26579;43.238;23.124;2023-01-26T13:52:48;96993.97;;;2.82;70.41
39411;BME280;26579;43.238;23.124;2023-01-26T13:55:25;96994.59;;;2.87;70.18
39411;BME280;26579;43.238;23.124;2023-01-26T13:58:11;96999.06;;;2.83;70.39
39411;BME280;26579;43.238;23.124;2023-01-26T14:00:36;96992.84;;;2.87;69.51
39411;BME280;26579;43.238;23.124;2023-01-26T14:03:02;96978.13;;;2.74;70.45
39411;BME280;26579;43.238;23.124;2023-01-26T14:05:28;96992.38;;;2.79;70.71
39411;BME280;26579;43.238;23.124;2023-01-26T14:07:55;96994.59;;;2.87;70.68
39411;BME280;26579;43.238;23.124;2023-01-26T14:10:21;96982.19;;;2.78;70.60
39411;BME280;26579;43.238;23.124;2023-01-26T14:12:51;96980.44;;;2.78;70.32
39411;BME280;26579;43.238;23.124;2023-01-26T14:15:26;96950.06;;;2.69;70.60
39411;BME280;26579;43.238;23.124;2023-01-26T14:18:00;96950.28;;;2.64;70.06
39411;BME280;26579;43.238;23.124;2023-01-26T14:20:27;96962.72;;;2.56;71.54
39411;BME280;26579;43.238;23.124;2023-01-26T14:23:16;96965.28;;;2.56;72.11
39411;BME280;26579;43.238;23.124;2023-01-26T14:25:48;96956.13;;;2.68;71.21
39411;BME280;26579;43.238;23.124;2023-01-26T14:28:26;96953.47;;;2.69;71.68
39411;BME280;26579;43.238;23.124;2023-01-26T14:30:59;96955.13;;;2.70;70.95
39411;BME280;26579;43.238;23.124;2023-01-26T14:33:26;96954.28;;;2.70;71.37